Time;durP1;ratioP1;P1;durP2;ratioP2;P2;SDS_P1;SDS_P2;PMS_P1;PMS_P2;Temp;Humidity;BMP_temperature;BMP_pressure;BME280_temperature;BME280_humidity;BME280_pressure;Samples;Min_cycle;Max_cycle;Signal;HPM_P1;HPM_P2
2023/04/10 00:00:09;;;;;;;54.28;36.97;;;7.80;80.00;;;;;;5111640;28;20043;-82
2023/04/10 00:02:36;;;;;;;52.33;34.85;;;7.70;80.40;;;;;;5111974;28;20039;-82
2023/04/10 00:05:02;;;;;;;51.70;35.47;;;7.60;80.10;;;;;;5111947;28;20040;-82
2023/04/10 00:07:27;;;;;;;52.83;37.75;;;7.60;80.60;;;;;;5094577;28;20052;-82
2023/04/10 00:09:53;;;;;;;52.10;36.00;;;7.50;81.10;;;;;;5111627;28;20036;-83
2023/04/10 00:12:19;;;;;;;52.35;37.17;;;7.50;80.80;;;;;;5077787;28;20046;-84
2023/04/10 00:14:45;;;;;;;50.30;37.05;;;7.50;80.60;;;;;;5077879;28;20074;-83
2023/04/10 00:17:11;;;;;;;54.90;36.22;;;7.50;80.80;;;;;;5111877;28;20047;-83
2023/04/10 00:19:36;;;;;;;50.17;35.35;;;7.40;81.30;;;;;;5094510;28;20056;-83
2023/04/10 00:22:02;;;;;;;52.75;37.95;;;7.40;80.80;;;;;;5094651;28;20494;-83
2023/04/10 00:24:28;;;;;;;46.97;34.35;;;7.30;81.50;;;;;;5077717;28;20176;-83
2023/04/10 00:26:55;;;;;;;48.55;35.88;;;7.30;81.20;;;;;;5094984;28;20070;-83
2023/04/10 00:29:21;;;;;;;48.55;36.60;;;7.20;81.50;;;;;;5111470;28;20058;-84
2023/04/10 00:31:47;;;;;;;51.63;36.95;;;7.10;81.80;;;;;;5077734;28;20126;-83
2023/04/10 00:34:12;;;;;;;53.40;38.10;;;7.10;81.80;;;;;;5094461;28;20126;-83
2023/04/10 00:36:38;;;;;;;51.92;37.63;;;7.10;82.00;;;;;;5077835;28;20042;-82
2023/04/10 00:39:04;;;;;;;51.13;37.25;;;7.00;81.90;;;;;;5077511;28;20555;-83
2023/04/10 00:41:30;;;;;;;53.00;37.45;;;7.00;82.50;;;;;;5114755;28;20043;-83
2023/04/10 00:43:56;;;;;;;50.85;37.90;;;7.00;82.40;;;;;;5098223;28;20391;-83
2023/04/10 00:46:23;;;;;;;54.75;39.63;;;7.00;82.40;;;;;;5098197;28;20039;-83
2023/04/10 00:48:51;;;;;;;53.28;38.65;;;6.90;82.60;;;;;;5116016;28;20056;-83
2023/04/10 00:51:19;;;;;;;57.15;40.72;;;6.90;83.10;;;;;;5081916;28;20073;-83
2023/04/10 00:53:50;;;;;;;57.25;39.17;;;7.00;82.90;;;;;;5114911;28;20047;-83
2023/04/10 00:56:17;;;;;;;57.60;40.88;;;7.00;82.50;;;;;;5114889;28;20044;-83
2023/04/10 00:58:43;;;;;;;59.42;42.10;;;7.00;82.10;;;;;;5114667;28;20043;-83
2023/04/10 01:01:09;;;;;;;59.35;40.83;;;7.10;81.90;;;;;;5098030;28;20046;-83
2023/04/10 01:03:36;;;;;;;57.00;41.92;;;7.10;82.00;;;;;;5097844;28;20502;-83
2023/04/10 01:06:02;;;;;;;61.65;42.17;;;7.10;81.90;;;;;;5114822;28;20044;-83
2023/04/10 01:08:28;;;;;;;60.70;42.10;;;7.10;81.80;;;;;;5114501;28;20510;-83
2023/04/10 01:11:08;;;;;;;66.50;43.50;;;7.10;81.80;;;;;;5097867;28;20043;-83
2023/04/10 01:13:40;;;;;;;58.10;41.17;;;7.10;81.80;;;;;;5097948;28;20036;-83
2023/04/10 01:16:23;;;;;;;58.75;41.75;;;7.10;81.80;;;;;;5114921;28;20508;-83
2023/04/10 01:18:52;;;;;;;62.15;42.45;;;7.10;81.50;;;;;;5114459;28;20043;-83
2023/04/10 01:21:21;;;;;;;63.35;42.33;;;7.10;81.60;;;;;;5114480;28;20040;-83
2023/04/10 01:23:49;;;;;;;61.40;44.28;;;7.10;81.70;;;;;;5114314;28;20043;-83
2023/04/10 01:26:21;;;;;;;58.60;43.40;;;7.00;82.10;;;;;;5114576;28;20043;-82
2023/04/10 01:29:19;;;;;;;56.92;40.78;;;7.00;81.90;;;;;;5098193;28;20035;-83
2023/04/10 01:31:49;;;;;;;55.45;39.03;;;6.90;82.20;;;;;;5074932;28;20433;-83
2023/04/10 01:34:20;;;;;;;54.67;40.05;;;6.80;81.90;;;;;;5097465;28;20040;-83
2023/04/10 01:36:54;;;;;;;56.63;40.83;;;6.80;82.10;;;;;;5096971;28;20040;-83
2023/04/10 01:39:21;;;;;;;61.03;41.80;;;6.80;82.20;;;;;;5113970;28;20043;-83
2023/04/10 01:41:52;;;;;;;57.58;40.17;;;6.70;82.20;;;;;;5113946;28;20118;-83
2023/04/10 01:44:22;;;;;;;55.88;41.30;;;6.70;82.30;;;;;;5114027;28;20048;-83
2023/04/10 01:46:49;;;;;;;57.60;41.97;;;6.70;82.50;;;;;;5096996;28;20043;-83
2023/04/10 01:49:16;;;;;;;55.22;41.13;;;6.70;82.60;;;;;;5113807;28;20043;-83
2023/04/10 01:51:43;;;;;;;56.47;40.85;;;6.70;82.70;;;;;;5079909;28;20047;-83
2023/04/10 01:54:10;;;;;;;58.15;41.47;;;6.60;82.70;;;;;;5097379;28;20075;-82
2023/04/10 01:56:37;;;;;;;54.55;39.97;;;6.60;82.90;;;;;;5079945;28;20507;-83
2023/04/10 01:59:04;;;;;;;53.92;40.67;;;6.60;82.80;;;;;;5079871;28;20047;-83
2023/04/10 02:01:30;;;;;;;59.58;41.35;;;6.60;82.50;;;;;;5080508;28;20050;-83
2023/04/10 02:03:57;;;;;;;56.63;40.55;;;6.60;82.40;;;;;;5096799;28;20040;-82
2023/04/10 02:06:30;;;;;;;57.25;41.80;;;6.60;82.30;;;;;;5096559;28;20048;-83
2023/04/10 02:09:06;;;;;;;54.67;39.95;;;6.60;82.30;;;;;;5113512;28;20040;-82
2023/04/10 02:12:01;;;;;;;58.20;41.15;;;6.60;82.20;;;;;;5113582;28;20047;-83
2023/04/10 02:14:30;;;;;;;57.70;40.75;;;6.60;82.50;;;;;;5113138;28;20376;-83
2023/04/10 02:16:56;;;;;;;57.60;42.00;;;6.50;82.60;;;;;;5113306;28;20043;-83
2023/04/10 02:19:23;;;;;;;55.70;41.15;;;6.50;82.70;;;;;;5096181;28;20050;-83
2023/04/10 02:21:50;;;;;;;59.72;41.00;;;6.40;83.10;;;;;;5096565;28;20096;-83
2023/04/10 02:24:18;;;;;;;59.20;43.30;;;6.40;83.10;;;;;;5096534;28;20389;-83
2023/04/10 02:26:49;;;;;;;56.85;41.85;;;6.40;83.00;;;;;;5113390;28;20035;-83
2023/04/10 02:29:14;;;;;;;62.20;42.20;;;6.40;82.90;;;;;;5096287;28;20180;-83
2023/04/10 02:31:41;;;;;;;61.53;43.38;;;6.40;82.80;;;;;;5113078;28;20074;-83
2023/04/10 02:34:06;;;;;;;57.33;41.97;;;6.40;83.10;;;;;;5112956;28;20043;-82
2023/04/10 02:36:34;;;;;;;58.25;41.85;;;6.40;83.10;;;;;;5079087;28;20045;-82
2023/04/10 02:39:00;;;;;;;56.55;39.92;;;6.40;83.10;;;;;;5096170;28;20229;-83
2023/04/10 02:41:28;;;;;;;55.70;41.30;;;6.40;82.90;;;;;;5113191;28;20574;-82
2023/04/10 02:43:54;;;;;;;58.30;41.88;;;6.40;82.70;;;;;;5079468;28;20039;-83
2023/04/10 02:46:20;;;;;;;56.88;41.95;;;6.40;82.80;;;;;;5095836;28;20047;-83
2023/04/10 02:48:46;;;;;;;59.20;43.55;;;6.40;83.00;;;;;;5079083;28;20112;-83
2023/04/10 02:51:12;;;;;;;54.83;40.10;;;6.30;83.30;;;;;;5078916;28;20043;-83
2023/04/10 02:53:38;;;;;;;53.70;40.75;;;6.30;83.20;;;;;;5095726;28;20040;-83
2023/04/10 02:56:05;;;;;;;58.42;42.58;;;6.20;83.40;;;;;;5095494;28;20100;-83
2023/04/10 02:58:31;;;;;;;58.63;41.92;;;6.20;83.30;;;;;;5095541;28;20100;-83
2023/04/10 03:00:57;;;;;;;56.03;41.05;;;6.20;83.30;;;;;;5096069;28;20090;-82
2023/04/10 03:03:23;;;;;;;54.55;40.97;;;6.20;83.40;;;;;;5095262;28;20074;-82
2023/04/10 03:05:49;;;;;;;54.25;38.67;;;6.20;83.30;;;;;;5097435;27;20484;-82
2023/04/10 03:08:16;;;;;;;55.15;40.70;;;6.20;83.10;;;;;;5081822;27;20115;-83
2023/04/10 03:10:47;;;;;;;57.40;39.55;;;6.20;83.20;;;;;;5098857;27;20039;-83
2023/04/10 03:13:14;;;;;;;52.22;38.17;;;6.20;83.10;;;;;;5115807;27;20035;-83
2023/04/10 03:15:40;;;;;;;55.22;40.38;;;6.30;83.20;;;;;;5115917;27;20068;-83
2023/04/10 03:18:05;;;;;;;52.83;38.53;;;6.30;83.10;;;;;;5098685;27;20596;-83
2023/04/10 03:20:37;;;;;;;55.63;41.30;;;6.30;83.10;;;;;;5082217;27;20421;-83
2023/04/10 03:23:04;;;;;;;54.60;39.17;;;6.30;83.10;;;;;;5115747;27;20395;-83
2023/04/10 03:25:32;;;;;;;53.67;38.35;;;6.30;83.00;;;;;;5115722;27;20065;-83
2023/04/10 03:27:58;;;;;;;53.38;38.85;;;6.30;82.90;;;;;;5098487;27;20078;-82
2023/04/10 03:30:24;;;;;;;53.58;40.17;;;6.30;82.80;;;;;;5115738;27;20074;-83
2023/04/10 03:32:50;;;;;;;50.97;38.15;;;6.30;83.10;;;;;;5098708;28;20475;-83
2023/04/10 03:35:15;;;;;;;50.20;38.97;;;6.30;83.30;;;;;;5098336;27;20087;-83
2023/04/10 03:37:41;;;;;;;54.45;39.20;;;6.20;83.40;;;;;;5098328;27;20042;-83
2023/04/10 03:40:08;;;;;;;53.88;39.03;;;6.20;83.60;;;;;;5098340;27;20039;-83
2023/04/10 03:42:34;;;;;;;53.30;40.15;;;6.10;83.90;;;;;;5115641;27;20031;-83
2023/04/10 03:45:03;;;;;;;52.13;38.72;;;6.10;83.80;;;;;;5098640;28;20502;-83
2023/04/10 03:47:30;;;;;;;58.63;40.30;;;6.10;83.50;;;;;;5098949;27;20103;-83
2023/04/10 03:49:58;;;;;;;54.28;39.00;;;6.10;83.70;;;;;;5115402;27;20439;-83
2023/04/10 03:52:24;;;;;;;52.63;39.10;;;6.10;83.90;;;;;;5115100;28;20483;-83
2023/04/10 03:54:50;;;;;;;52.47;40.20;;;6.00;84.30;;;;;;5081747;28;20079;-83
2023/04/10 03:57:18;;;;;;;54.38;39.97;;;6.00;84.70;;;;;;5081618;28;20098;-83
2023/04/10 03:59:43;;;;;;;49.53;38.63;;;5.90;84.60;;;;;;5081466;28;20042;-82
2023/04/10 04:02:09;;;;;;;52.33;39.95;;;5.90;84.60;;;;;;5098235;28;20039;-83
2023/04/10 04:04:35;;;;;;;54.65;40.58;;;5.90;85.00;;;;;;5098411;28;20027;-83
2023/04/10 04:07:01;;;;;;;55.05;40.28;;;5.80;85.00;;;;;;5097978;28;20534;-83
2023/04/10 04:09:27;;;;;;;53.40;39.85;;;5.90;85.00;;;;;;5081264;28;20517;-82
2023/04/10 04:11:52;;;;;;;53.97;39.25;;;5.90;84.90;;;;;;5081197;28;20111;-82
2023/04/10 04:14:18;;;;;;;53.78;39.63;;;5.90;84.60;;;;;;5099882;27;20387;-83
2023/04/10 04:16:44;;;;;;;50.20;37.60;;;5.90;84.90;;;;;;5102127;27;20125;-82
2023/04/10 04:19:10;;;;;;;50.10;37.88;;;6.00;85.10;;;;;;5101903;27;20035;-83
2023/04/10 04:21:35;;;;;;;50.22;37.60;;;6.00;85.50;;;;;;5085458;27;20035;-82
2023/04/10 04:24:01;;;;;;;49.13;37.58;;;6.00;85.00;;;;;;5101951;27;20494;-83
2023/04/10 04:26:27;;;;;;;49.88;36.70;;;6.00;85.30;;;;;;5102248;27;20027;-83
2023/04/10 04:28:52;;;;;;;49.30;37.75;;;6.10;85.40;;;;;;5068112;27;20046;-83
2023/04/10 04:31:18;;;;;;;51.65;37.78;;;6.10;85.40;;;;;;5084936;27;20085;-83
2023/04/10 04:33:44;;;;;;;49.45;36.97;;;6.10;84.80;;;;;;5118788;27;20035;-83
2023/04/10 04:36:10;;;;;;;51.33;38.78;;;6.20;85.40;;;;;;5101917;27;20091;-83
2023/04/10 04:38:35;;;;;;;49.13;35.78;;;6.20;85.10;;;;;;5084643;27;20044;-82
2023/04/10 04:41:01;;;;;;;46.63;34.75;;;6.20;84.90;;;;;;5101721;27;20050;-83
2023/04/10 04:43:27;;;;;;;50.38;35.28;;;6.30;84.90;;;;;;5118867;27;20046;-83
2023/04/10 04:45:52;;;;;;;44.92;33.88;;;6.30;85.10;;;;;;5101358;27;20523;-83
2023/04/10 04:48:18;;;;;;;46.78;35.65;;;6.30;84.90;;;;;;5084333;27;20679;-82
2023/04/10 04:50:44;;;;;;;45.75;34.85;;;6.30;84.50;;;;;;5084606;27;20035;-83
2023/04/10 04:53:10;;;;;;;43.42;34.28;;;6.30;84.60;;;;;;5118046;27;20039;-83
2023/04/10 04:55:36;;;;;;;46.08;33.30;;;6.30;84.60;;;;;;5084082;27;20049;-82
2023/04/10 04:58:01;;;;;;;43.40;33.58;;;6.30;84.80;;;;;;5100839;27;20039;-82
2023/04/10 05:00:27;;;;;;;44.22;33.03;;;6.40;84.80;;;;;;5084503;27;20071;-83
2023/04/10 05:02:53;;;;;;;45.97;33.42;;;6.30;85.20;;;;;;5118281;27;20505;-84
2023/04/10 05:05:18;;;;;;;42.13;31.08;;;6.30;84.90;;;;;;5101277;27;20039;-83
2023/04/10 05:07:45;;;;;;;40.28;30.42;;;6.40;84.70;;;;;;5101340;27;20124;-83
2023/04/10 05:10:11;;;;;;;41.90;30.92;;;6.40;84.90;;;;;;5084026;27;20046;-83
2023/04/10 05:12:36;;;;;;;40.67;31.13;;;6.40;84.60;;;;;;5101042;27;20122;-82
2023/04/10 05:15:02;;;;;;;42.20;30.92;;;6.40;84.90;;;;;;5100977;27;20143;-83
2023/04/10 05:17:28;;;;;;;38.13;28.17;;;6.40;84.90;;;;;;5101431;27;20113;-83
2023/04/10 05:19:54;;;;;;;41.85;30.42;;;6.40;84.70;;;;;;5084005;27;20549;-83
2023/04/10 05:22:19;;;;;;;43.80;28.98;;;6.50;84.80;;;;;;5100983;27;20031;-83
2023/04/10 05:24:45;;;;;;;38.20;29.45;;;6.50;85.00;;;;;;5100835;27;20380;-83
2023/04/10 05:27:11;;;;;;;40.00;28.42;;;6.50;85.10;;;;;;5066558;27;20306;-82
2023/04/10 05:29:37;;;;;;;38.40;28.55;;;6.50;85.00;;;;;;5117657;27;20051;-83
2023/04/10 05:32:02;;;;;;;36.67;26.83;;;6.50;85.10;;;;;;5067437;27;20128;-83
2023/04/10 05:34:28;;;;;;;33.15;25.13;;;6.50;85.20;;;;;;5083750;27;20507;-83
2023/04/10 05:36:54;;;;;;;34.67;26.88;;;6.50;85.20;;;;;;5067146;27;20039;-83
2023/04/10 05:39:19;;;;;;;34.83;25.50;;;6.60;85.00;;;;;;5116595;27;20043;-83
2023/04/10 05:41:45;;;;;;;35.22;25.88;;;6.60;84.80;;;;;;5083736;27;20039;-83
2023/04/10 05:44:11;;;;;;;32.28;24.70;;;6.60;84.80;;;;;;5100711;27;20045;-83
2023/04/10 05:46:36;;;;;;;33.60;25.13;;;6.70;84.90;;;;;;5100555;27;20478;-83
2023/04/10 05:49:02;;;;;;;35.15;24.23;;;6.70;85.00;;;;;;5100359;27;20043;-83
2023/04/10 05:51:28;;;;;;;33.42;23.33;;;6.70;84.80;;;;;;5066926;27;20039;-83
2023/04/10 05:53:53;;;;;;;31.88;23.52;;;6.80;84.50;;;;;;5083730;27;20035;-83
2023/04/10 05:56:20;;;;;;;32.00;23.13;;;6.80;84.60;;;;;;5083352;27;20406;-83
2023/04/10 05:58:45;;;;;;;30.02;23.83;;;6.80;84.40;;;;;;5100362;27;20505;-83
2023/04/10 06:01:12;;;;;;;27.88;21.95;;;6.90;84.60;;;;;;5083540;27;20043;-83
2023/04/10 06:03:38;;;;;;;33.13;23.88;;;7.00;84.80;;;;;;5100503;27;20035;-83
2023/04/10 06:06:06;;;;;;;30.55;22.90;;;7.00;84.70;;;;;;5100144;27;20039;-82
2023/04/10 06:08:33;;;;;;;31.05;21.83;;;7.10;84.40;;;;;;5116753;27;20055;-83
2023/04/10 06:10:59;;;;;;;29.70;21.50;;;7.10;84.40;;;;;;5083570;27;20130;-83
2023/04/10 06:13:26;;;;;;;32.85;22.10;;;7.20;84.20;;;;;;5116887;27;20130;-82
2023/04/10 06:15:52;;;;;;;29.60;21.33;;;7.20;84.10;;;;;;5117043;27;20410;-83
2023/04/10 06:18:17;;;;;;;27.17;21.17;;;7.30;84.00;;;;;;5066212;27;20118;-83
2023/04/10 06:20:43;;;;;;;32.20;22.40;;;7.40;83.90;;;;;;5116779;27;20036;-83
2023/04/10 06:23:10;;;;;;;28.02;21.38;;;7.40;83.70;;;;;;5099944;27;20035;-83
2023/04/10 06:25:37;;;;;;;26.77;19.80;;;7.50;83.90;;;;;;5099796;27;20050;-83
2023/04/10 06:28:02;;;;;;;28.98;21.27;;;7.50;83.70;;;;;;5116926;27;20411;-83
2023/04/10 06:30:29;;;;;;;34.22;20.35;;;7.60;83.60;;;;;;5082854;27;20050;-83
2023/04/10 06:32:55;;;;;;;25.73;19.27;;;7.70;83.40;;;;;;5100005;27;20038;-83
2023/04/10 06:35:21;;;;;;;27.35;18.75;;;7.80;83.10;;;;;;5099472;27;20415;-83
2023/04/10 06:37:47;;;;;;;28.58;19.83;;;8.00;83.10;;;;;;5098513;27;20036;-83
2023/04/10 06:40:14;;;;;;;24.55;17.92;;;8.10;82.40;;;;;;5116226;27;20046;-83
2023/04/10 06:42:40;;;;;;;27.88;19.45;;;8.10;82.20;;;;;;5082943;27;20031;-83
2023/04/10 06:45:07;;;;;;;25.50;19.30;;;8.30;82.00;;;;;;5099640;27;20043;-82
2023/04/10 06:47:33;;;;;;;25.65;18.58;;;8.40;80.80;;;;;;5099439;27;20027;-83
2023/04/10 06:50:00;;;;;;;30.08;20.85;;;8.50;81.30;;;;;;5066002;27;20380;-82
2023/04/10 06:52:26;;;;;;;26.13;18.40;;;8.60;81.10;;;;;;5082815;27;20390;-83
2023/04/10 06:54:52;;;;;;;28.60;19.80;;;8.80;80.50;;;;;;5099106;27;20096;-83
2023/04/10 06:57:18;;;;;;;26.75;19.00;;;8.90;80.00;;;;;;5082462;27;20091;-82
2023/04/10 06:59:44;;;;;;;25.58;18.95;;;9.00;80.10;;;;;;5098938;27;20410;-82
2023/04/10 07:02:10;;;;;;;25.90;16.77;;;9.10;79.50;;;;;;5099251;27;20125;-83
2023/04/10 07:04:36;;;;;;;27.65;18.42;;;9.20;79.50;;;;;;5081972;27;20525;-84
2023/04/10 07:07:02;;;;;;;25.58;18.58;;;9.30;78.60;;;;;;5098797;27;20043;-84
2023/04/10 07:09:29;;;;;;;27.75;18.80;;;9.50;78.40;;;;;;5099366;27;20035;-83
2023/04/10 07:11:55;;;;;;;22.67;16.25;;;9.60;76.60;;;;;;5098709;27;20039;-84
2023/04/10 07:14:24;;;;;;;23.27;16.17;;;9.70;76.70;;;;;;5098847;27;20113;-83
2023/04/10 07:16:50;;;;;;;23.42;16.65;;;9.80;76.70;;;;;;5098898;27;20058;-83
2023/04/10 07:19:15;;;;;;;25.30;17.38;;;10.00;76.70;;;;;;5098606;27;20471;-83
2023/04/10 07:21:41;;;;;;;24.65;18.98;;;10.10;76.80;;;;;;5082014;27;20046;-83
2023/04/10 07:24:07;;;;;;;23.90;16.10;;;10.20;76.50;;;;;;5098600;27;20039;-83
2023/04/10 07:26:33;;;;;;;23.30;17.15;;;10.30;75.40;;;;;;5098557;27;20125;-84
2023/04/10 07:28:58;;;;;;;23.55;16.92;;;10.40;75.70;;;;;;5098546;27;20043;-83
2023/04/10 07:31:24;;;;;;;21.00;16.05;;;10.40;75.70;;;;;;5098845;27;20074;-83
2023/04/10 07:33:50;;;;;;;19.52;15.05;;;10.50;74.90;;;;;;5098554;27;20043;-83
2023/04/10 07:36:16;;;;;;;22.05;17.05;;;10.50;73.80;;;;;;5098783;28;20483;-83
2023/04/10 07:38:42;;;;;;;22.10;16.17;;;10.50;74.60;;;;;;5098169;27;20039;-83
2023/04/10 07:41:09;;;;;;;18.67;14.52;;;10.50;73.80;;;;;;5115415;27;20035;-83
2023/04/10 07:43:35;;;;;;;21.17;15.35;;;10.50;73.80;;;;;;5115458;28;20039;-83
2023/04/10 07:46:00;;;;;;;19.45;14.75;;;10.50;73.70;;;;;;5098655;27;20046;-84
2023/04/10 07:48:26;;;;;;;18.00;14.55;;;10.60;73.10;;;;;;5098292;28;20479;-83
2023/04/10 07:50:52;;;;;;;19.27;15.00;;;10.60;73.40;;;;;;5081808;27;20382;-83
2023/04/10 07:53:18;;;;;;;21.40;15.88;;;10.70;73.60;;;;;;5098308;28;20471;-83
2023/04/10 07:55:47;;;;;;;18.50;15.32;;;10.80;73.60;;;;;;5115336;28;20104;-84
2023/04/10 07:58:13;;;;;;;18.23;14.23;;;10.80;72.50;;;;;;5098430;27;20038;-83
2023/04/10 08:00:39;;;;;;;19.25;14.85;;;10.90;70.90;;;;;;5081575;28;20031;-83
2023/04/10 08:03:05;;;;;;;20.00;16.80;;;11.00;72.20;;;;;;5098719;28;20066;-83
2023/04/10 08:05:30;;;;;;;21.65;15.73;;;11.00;71.10;;;;;;5081379;28;20471;-83
2023/04/10 08:07:56;;;;;;;20.27;15.10;;;11.10;71.50;;;;;;5098171;28;20062;-83
2023/04/10 08:10:22;;;;;;;16.92;14.38;;;11.20;72.10;;;;;;5098026;28;20486;-84
2023/04/10 08:12:48;;;;;;;17.63;14.35;;;11.30;70.70;;;;;;5115361;28;20043;-83
2023/04/10 08:15:13;;;;;;;19.00;15.38;;;11.30;70.10;;;;;;5115308;28;20487;-84
2023/04/10 08:17:39;;;;;;;18.27;14.98;;;11.40;70.30;;;;;;5098143;28;20423;-83
2023/04/10 08:20:05;;;;;;;16.98;13.02;;;11.40;69.30;;;;;;5080982;28;20039;-82
2023/04/10 08:22:31;;;;;;;19.15;15.40;;;11.40;69.20;;;;;;5081361;28;20088;-82
2023/04/10 08:24:57;;;;;;;18.98;13.95;;;11.50;69.90;;;;;;5081287;28;20035;-83
2023/04/10 08:27:22;;;;;;;17.50;13.82;;;11.50;70.20;;;;;;5081423;28;20035;-83
2023/04/10 08:29:48;;;;;;;17.63;13.38;;;11.60;69.50;;;;;;5098169;28;20463;-83
2023/04/10 08:32:14;;;;;;;19.08;14.52;;;11.60;68.80;;;;;;5097868;28;20507;-84
2023/04/10 08:34:39;;;;;;;16.45;13.70;;;11.70;68.50;;;;;;5064525;28;20386;-83
2023/04/10 08:37:08;;;;;;;15.55;12.55;;;11.80;68.50;;;;;;5064383;28;20060;-83
2023/04/10 08:39:35;;;;;;;19.05;13.80;;;11.90;68.70;;;;;;5114807;28;20399;-83
2023/04/10 08:42:02;;;;;;;20.77;15.18;;;12.00;68.00;;;;;;5097968;28;20042;-83
2023/04/10 08:44:28;;;;;;;18.67;13.85;;;12.10;68.00;;;;;;5098089;28;20078;-84
2023/04/10 08:46:57;;;;;;;17.33;13.13;;;12.20;67.60;;;;;;5080979;28;20073;-83
2023/04/10 08:49:53;;;;;;;16.73;12.90;;;12.20;66.80;;;;;;5097701;28;20128;-82
2023/04/10 08:52:26;;;;;;;18.50;14.23;;;12.20;66.60;;;;;;5112744;28;20043;-83
2023/04/10 08:54:57;;;;;;;17.45;13.30;;;12.30;66.70;;;;;;5097873;28;20050;-83
2023/04/10 08:57:26;;;;;;;17.50;12.90;;;12.30;66.30;;;;;;5098068;28;20091;-83
2023/04/10 08:59:51;;;;;;;19.77;13.98;;;12.30;67.30;;;;;;5097558;27;20046;-84
2023/04/10 09:02:18;;;;;;;15.90;13.07;;;12.30;67.80;;;;;;5118304;27;20038;-83
2023/04/10 09:04:55;;;;;;;18.10;12.68;;;12.30;67.50;;;;;;5084456;27;20497;-83
2023/04/10 09:07:22;;;;;;;17.65;13.32;;;12.40;67.80;;;;;;5118369;27;20056;-83
2023/04/10 09:09:48;;;;;;;17.13;12.90;;;12.30;67.20;;;;;;5101397;27;20047;-83
2023/04/10 09:12:14;;;;;;;18.90;13.55;;;12.40;67.60;;;;;;5101003;27;20046;-84
2023/04/10 09:14:40;;;;;;;13.57;11.10;;;12.40;66.90;;;;;;5101477;27;20391;-82
2023/04/10 09:17:12;;;;;;;18.13;13.57;;;12.40;67.00;;;;;;5101132;27;20499;-83
2023/04/10 09:19:38;;;;;;;18.25;13.65;;;12.40;66.80;;;;;;5118056;27;20039;-83
2023/04/10 09:22:04;;;;;;;18.33;13.82;;;12.40;67.00;;;;;;5101286;27;20503;-83
2023/04/10 09:24:30;;;;;;;17.27;13.60;;;12.50;66.30;;;;;;5101280;27;20159;-84
2023/04/10 09:26:56;;;;;;;19.80;14.05;;;12.50;66.00;;;;;;5084562;27;20035;-86
2023/04/10 09:29:21;;;;;;;17.05;14.32;;;12.50;66.20;;;;;;5084001;27;20130;-83
2023/04/10 09:31:47;;;;;;;15.57;12.07;;;12.60;67.00;;;;;;5084290;27;20035;-83
2023/04/10 09:34:16;;;;;;;15.75;13.10;;;12.70;66.90;;;;;;5067424;27;20075;-84
2023/04/10 09:36:52;;;;;;;18.42;12.85;;;12.80;66.90;;;;;;5101113;27;20387;-84
2023/04/10 09:39:18;;;;;;;18.33;12.32;;;12.80;66.30;;;;;;5117663;27;20107;-84
2023/04/10 09:41:48;;;;;;;16.15;12.20;;;12.80;64.50;;;;;;5118008;27;20031;-85
2023/04/10 09:44:18;;;;;;;14.13;11.85;;;12.80;65.80;;;;;;5100941;27;20080;-84
2023/04/10 09:46:45;;;;;;;15.25;12.32;;;12.90;64.40;;;;;;5117875;27;20035;-85
2023/04/10 09:49:11;;;;;;;18.27;11.93;;;12.80;64.30;;;;;;5100883;27;20642;-83
2023/04/10 09:51:38;;;;;;;13.80;11.85;;;12.80;64.50;;;;;;5067236;27;20130;-84
2023/04/10 09:54:04;;;;;;;16.13;13.00;;;12.80;65.40;;;;;;5100555;27;20051;-84
2023/04/10 09:56:33;;;;;;;13.27;10.80;;;12.90;65.80;;;;;;5100688;27;20431;-85
2023/04/10 09:59:00;;;;;;;14.38;11.98;;;12.90;65.40;;;;;;5117564;27;20039;-84
2023/04/10 10:01:33;;;;;;;16.27;11.80;;;12.80;65.90;;;;;;5100753;27;20071;-84
2023/04/10 10:04:02;;;;;;;12.35;10.73;;;12.80;65.30;;;;;;5100627;27;20035;-85
2023/04/10 10:06:30;;;;;;;15.48;10.88;;;12.80;64.60;;;;;;5117657;27;20095;-83
2023/04/10 10:09:01;;;;;;;13.60;10.40;;;12.70;64.30;;;;;;5116855;27;20063;-85
2023/04/10 10:11:28;;;;;;;14.50;10.98;;;12.80;64.40;;;;;;5117110;27;20043;-84
2023/04/10 10:13:55;;;;;;;14.30;11.90;;;12.80;65.30;;;;;;5100318;27;20042;-85
2023/04/10 10:16:33;;;;;;;14.02;10.88;;;12.90;65.90;;;;;;5067100;27;20103;-85
2023/04/10 10:18:59;;;;;;;14.18;11.18;;;12.90;64.50;;;;;;5116860;27;20035;-84
2023/04/10 10:21:27;;;;;;;13.82;11.25;;;12.90;64.00;;;;;;5116780;27;20035;-85
2023/04/10 10:23:57;;;;;;;12.63;11.02;;;13.00;64.90;;;;;;5117069;27;20391;-84
2023/04/10 10:26:23;;;;;;;12.05;10.25;;;13.00;65.40;;;;;;5117263;27;20082;-85
2023/04/10 10:28:53;;;;;;;15.15;10.90;;;13.10;65.70;;;;;;5083211;27;20525;-85
2023/04/10 10:31:21;;;;;;;12.68;10.57;;;13.10;63.30;;;;;;5099706;27;20099;-84
2023/04/10 10:33:47;;;;;;;17.55;10.77;;;13.20;64.20;;;;;;5082931;27;20039;-83
2023/04/10 10:36:17;;;;;;;12.38;10.10;;;13.20;62.40;;;;;;5066251;27;20126;-83
2023/04/10 10:38:51;;;;;;;13.35;10.85;;;13.30;63.10;;;;;;5116374;27;20031;-82
2023/04/10 10:41:30;;;;;;;14.43;10.65;;;13.20;63.30;;;;;;5116461;27;20035;-83
2023/04/10 10:44:23;;;;;;;12.20;10.15;;;13.40;63.90;;;;;;5099573;27;20502;-84
2023/04/10 10:46:57;;;;;;;12.10;9.77;;;13.40;62.90;;;;;;5099555;27;20064;-84
2023/04/10 10:50:09;;;;;;;11.82;9.63;;;13.50;62.70;;;;;;5116627;27;20417;-84
2023/04/10 10:52:45;;;;;;;13.13;10.48;;;13.50;63.30;;;;;;5112706;27;20090;-84
2023/04/10 10:55:23;;;;;;;13.07;10.02;;;13.50;64.90;;;;;;5116601;27;20031;-84
2023/04/10 10:57:57;;;;;;;14.15;10.25;;;13.50;63.90;;;;;;5116184;27;20039;-84
2023/04/10 11:00:24;;;;;;;12.80;10.52;;;13.50;63.90;;;;;;5116447;27;20367;-85
2023/04/10 11:03:09;;;;;;;13.07;10.63;;;13.50;62.90;;;;;;5099231;27;20135;-83
2023/04/10 11:05:59;;;;;;;13.65;10.57;;;13.50;62.90;;;;;;5099177;27;20123;-84
2023/04/10 11:08:45;;;;;;;13.18;10.13;;;13.50;62.20;;;;;;5112110;28;20055;-83
2023/04/10 11:11:24;;;;;;;12.23;9.32;;;13.50;62.00;;;;;;5112525;28;20043;-85
2023/04/10 11:13:50;;;;;;;14.30;10.30;;;13.50;62.40;;;;;;5112382;28;20044;-84
2023/04/10 11:16:17;;;;;;;15.38;12.13;;;13.50;62.90;;;;;;5095585;28;20035;-85
2023/04/10 11:18:46;;;;;;;13.15;10.35;;;13.60;62.40;;;;;;5095449;28;20036;-85
2023/04/10 11:21:19;;;;;;;14.20;12.48;;;13.70;63.40;;;;;;5112485;28;20047;-83
2023/04/10 11:23:51;;;;;;;16.75;12.52;;;13.80;63.90;;;;;;5111842;28;20047;-84
2023/04/10 11:26:33;;;;;;;17.63;13.55;;;13.90;63.20;;;;;;5095364;28;20036;-83
2023/04/10 11:29:00;;;;;;;15.18;11.27;;;14.00;63.00;;;;;;5112275;28;20487;-84
2023/04/10 11:31:26;;;;;;;17.33;12.23;;;14.10;62.60;;;;;;5095254;28;20051;-85
2023/04/10 11:33:56;;;;;;;12.63;11.02;;;14.10;61.90;;;;;;5095550;28;20044;-84
2023/04/10 11:36:22;;;;;;;13.07;10.77;;;14.20;61.50;;;;;;5112252;28;20079;-83
2023/04/10 11:38:59;;;;;;;12.65;10.35;;;14.30;60.70;;;;;;5112144;28;20040;-85
2023/04/10 11:41:30;;;;;;;12.30;9.65;;;14.40;61.60;;;;;;5112387;28;20031;-83
2023/04/10 11:44:00;;;;;;;11.20;9.07;;;14.40;59.00;;;;;;5095861;28;20088;-83
2023/04/10 11:46:27;;;;;;;13.45;9.63;;;14.50;59.50;;;;;;5078911;28;20043;-85
2023/04/10 11:49:05;;;;;;;12.38;9.07;;;14.50;58.80;;;;;;5112020;28;20039;-84
2023/04/10 11:51:31;;;;;;;11.43;8.65;;;14.50;59.00;;;;;;5112339;28;20046;-83
2023/04/10 11:54:20;;;;;;;12.65;10.02;;;14.50;60.20;;;;;;5095138;28;20042;-85
2023/04/10 11:57:04;;;;;;;15.25;10.75;;;14.40;59.20;;;;;;5112839;28;20043;-83
2023/04/10 11:59:31;;;;;;;16.13;10.63;;;14.40;58.40;;;;;;5094786;28;20046;-84
2023/04/10 12:02:07;;;;;;;13.23;9.20;;;14.40;59.40;;;;;;5078393;28;20379;-85
2023/04/10 12:04:34;;;;;;;11.73;8.68;;;14.50;60.20;;;;;;5095032;28;20032;-85
2023/04/10 12:07:00;;;;;;;11.48;8.68;;;14.50;59.40;;;;;;5078050;28;20067;-84
2023/04/10 12:09:26;;;;;;;11.90;9.75;;;14.50;59.50;;;;;;5111344;28;20132;-84
2023/04/10 12:12:02;;;;;;;11.40;8.85;;;14.50;60.30;;;;;;5111812;28;20238;-85
2023/04/10 12:14:35;;;;;;;12.48;9.65;;;14.50;59.60;;;;;;5111961;28;20044;-84
2023/04/10 12:17:03;;;;;;;10.90;9.27;;;14.30;60.10;;;;;;5111864;28;20075;-85
2023/04/10 12:19:30;;;;;;;13.52;9.63;;;14.30;60.30;;;;;;5094823;28;20040;-85
2023/04/10 12:21:57;;;;;;;12.07;9.70;;;14.30;61.20;;;;;;5094687;28;20039;-83
2023/04/10 12:24:46;;;;;;;12.48;8.07;;;14.20;61.20;;;;;;5094624;28;20123;-85
2023/04/10 12:27:19;;;;;;;11.10;8.77;;;14.20;60.80;;;;;;5094778;28;20042;-84
2023/04/10 12:29:46;;;;;;;14.00;9.27;;;14.20;62.30;;;;;;5111644;28;20043;-85
2023/04/10 12:32:12;;;;;;;11.63;9.15;;;14.10;61.70;;;;;;5111698;28;20047;-84
2023/04/10 12:34:38;;;;;;;11.93;8.48;;;14.10;60.70;;;;;;5095137;28;20172;-86
2023/04/10 12:37:04;;;;;;;12.05;10.23;;;14.10;61.00;;;;;;5099005;28;20047;-85